Time;durP1;ratioP1;P1;durP2;ratioP2;P2;SDS_P1;SDS_P2;PMS_P1;PMS_P2;Temp;Humidity;BMP_temperature;BMP_pressure;BME280_temperature;BME280_humidity;BME280_pressure;Samples;Min_cycle;Max_cycle;Signal;HPM_P1;HPM_P2
2023/12/18 00:01:05;;;;;;;21.90;11.25;;;;;;;-1.30;64.32;96834.19;5107146;28;20497;-78
2023/12/18 00:03:30;;;;;;;20.30;12.40;;;;;;;-1.35;64.10;96835.09;5106957;28;20028;-77
2023/12/18 00:05:56;;;;;;;24.45;12.27;;;;;;;-1.34;64.23;96839.41;5107066;28;20057;-77
2023/12/18 00:08:21;;;;;;;21.25;12.82;;;;;;;-1.37;64.56;96838.13;5107748;28;20027;-78
2023/12/18 00:10:47;;;;;;;21.02;12.07;;;;;;;-1.39;64.32;96832.22;5106792;28;20032;-78
2023/12/18 00:13:12;;;;;;;18.98;11.00;;;;;;;-1.38;64.21;96833.03;5107162;28;20035;-79
2023/12/18 00:15:37;;;;;;;23.02;12.52;;;;;;;-1.41;64.06;96818.28;5105955;28;20024;-78
2023/12/18 00:18:03;;;;;;;21.88;12.40;;;;;;;-1.45;64.12;96830.78;5106975;28;20329;-78
2023/12/18 00:20:29;;;;;;;25.63;13.35;;;;;;;-1.55;64.42;96828.38;5106472;28;20139;-78
2023/12/18 00:22:55;;;;;;;26.48;14.10;;;;;;;-1.54;64.54;96827.28;5107123;28;20039;-79
2023/12/18 00:25:20;;;;;;;21.75;10.85;;;;;;;-1.58;64.37;96820.13;5106204;28;20030;-77
2023/12/18 00:27:45;;;;;;;17.13;10.00;;;;;;;-1.62;64.06;96819.94;5106773;28;20301;-77
2023/12/18 00:30:11;;;;;;;19.63;9.93;;;;;;;-1.65;64.02;96809.81;5106503;28;20042;-77
2023/12/18 00:32:37;;;;;;;15.27;9.55;;;;;;;-1.64;64.15;96812.19;5105961;28;20024;-77
2023/12/18 00:35:02;;;;;;;15.23;9.38;;;;;;;-1.61;64.42;96808.88;5106843;28;20063;-77
2023/12/18 00:37:27;;;;;;;16.88;9.68;;;;;;;-1.59;64.34;96813.16;5105878;28;20053;-77
2023/12/18 00:39:53;;;;;;;15.60;8.52;;;;;;;-1.59;64.47;96810.47;5107013;28;20106;-77
2023/12/18 00:42:18;;;;;;;16.10;8.35;;;;;;;-1.63;64.94;96811.06;5106065;28;20028;-77
2023/12/18 00:44:43;;;;;;;17.33;8.95;;;;;;;-1.63;65.01;96807.56;5106733;28;20032;-77
2023/12/18 00:47:09;;;;;;;12.95;7.97;;;;;;;-1.61;65.19;96806.19;5106092;28;20062;-78
2023/12/18 00:49:34;;;;;;;16.42;8.23;;;;;;;-1.59;65.49;96803.16;5106128;28;20080;-78
2023/12/18 00:52:00;;;;;;;13.52;7.10;;;;;;;-1.57;65.40;96795.53;5106999;28;20102;-77
2023/12/18 00:54:25;;;;;;;11.48;7.18;;;;;;;-1.51;65.37;96799.69;5105620;28;20031;-78
2023/12/18 00:56:50;;;;;;;16.73;8.45;;;;;;;-1.51;65.52;96786.19;5107024;28;20026;-78
2023/12/18 00:59:17;;;;;;;12.93;7.53;;;;;;;-1.49;65.42;96792.09;5105520;28;20035;-77
2023/12/18 01:01:43;;;;;;;14.25;7.07;;;;;;;-1.47;65.33;96792.56;5106478;28;20030;-77
2023/12/18 01:04:08;;;;;;;14.75;8.20;;;;;;;-1.44;65.37;96789.22;5105527;28;20098;-78
2023/12/18 01:06:34;;;;;;;14.05;7.32;;;;;;;-1.42;65.31;96780.81;5106062;28;20027;-77
2023/12/18 01:09:01;;;;;;;14.90;8.20;;;;;;;-1.40;65.33;96779.38;5104925;28;20488;-79
2023/12/18 01:11:26;;;;;;;13.10;7.25;;;;;;;-1.39;65.14;96774.78;5105369;28;20035;-78
2023/12/18 01:13:52;;;;;;;14.93;7.47;;;;;;;-1.36;65.06;96777.66;5106592;28;20039;-77
2023/12/18 01:16:17;;;;;;;13.98;7.75;;;;;;;-1.34;64.96;96775.44;5105005;28;20123;-78
2023/12/18 01:18:43;;;;;;;12.18;7.05;;;;;;;-1.40;65.32;96771.28;5106541;28;20031;-78
2023/12/18 01:21:08;;;;;;;12.90;7.95;;;;;;;-1.41;65.24;96758.13;5105056;28;20070;-78
2023/12/18 01:23:33;;;;;;;14.05;7.88;;;;;;;-1.35;65.55;96756.88;5106412;28;20151;-78
2023/12/18 01:25:59;;;;;;;14.93;8.93;;;;;;;-1.35;65.57;96757.66;5105753;28;20394;-77
2023/12/18 01:28:24;;;;;;;16.27;7.97;;;;;;;-1.33;65.33;96750.03;5108150;28;20405;-77
2023/12/18 01:30:50;;;;;;;13.30;7.40;;;;;;;-1.33;65.46;96752.72;5110495;27;20153;-77
2023/12/18 01:33:15;;;;;;;14.98;8.38;;;;;;;-1.32;65.45;96750.81;5109043;28;20048;-78
2023/12/18 01:35:40;;;;;;;12.95;8.00;;;;;;;-1.37;65.67;96749.09;5110732;28;20073;-76
2023/12/18 01:38:07;;;;;;;12.73;7.22;;;;;;;-1.40;65.43;96747.00;5108878;28;20110;-77
2023/12/18 01:40:32;;;;;;;13.20;7.57;;;;;;;-1.41;65.58;96742.72;5110272;28;20457;-78
2023/12/18 01:42:58;;;;;;;15.70;7.85;;;;;;;-1.40;65.46;96741.63;5109734;28;20020;-78
2023/12/18 01:45:23;;;;;;;12.32;8.07;;;;;;;-1.43;65.12;96727.97;5109989;28;20110;-77
2023/12/18 01:47:49;;;;;;;11.98;7.45;;;;;;;-1.37;65.29;96724.03;5108502;28;20026;-78
2023/12/18 01:50:14;;;;;;;13.13;7.85;;;;;;;-1.39;65.36;96727.00;5107669;28;20555;-77
2023/12/18 01:52:40;;;;;;;14.60;7.43;;;;;;;-1.37;65.28;96729.41;5110472;28;20043;-78
2023/12/18 01:55:06;;;;;;;13.55;8.07;;;;;;;-1.39;65.45;96721.63;5107448;28;20359;-78
2023/12/18 01:57:32;;;;;;;12.63;7.78;;;;;;;-1.37;65.42;96726.72;5110501;28;20023;-77
2023/12/18 01:59:57;;;;;;;13.48;7.38;;;;;;;-1.35;65.30;96732.59;5107431;28;20096;-77
2023/12/18 02:02:23;;;;;;;13.95;7.18;;;;;;;-1.37;65.41;96732.13;5108176;28;20139;-77
2023/12/18 02:04:48;;;;;;;15.43;8.40;;;;;;;-1.41;65.47;96731.16;5109290;28;20110;-77
2023/12/18 02:07:13;;;;;;;14.75;8.70;;;;;;;-1.37;65.61;96726.72;5108701;28;20066;-78
2023/12/18 02:09:41;;;;;;;15.13;8.13;;;;;;;-1.38;65.77;96719.72;5109836;28;20054;-77
2023/12/18 02:12:06;;;;;;;13.13;7.28;;;;;;;-1.35;65.70;96727.97;5108315;28;20033;-77
2023/12/18 02:14:32;;;;;;;12.95;7.47;;;;;;;-1.33;65.62;96728.44;5108467;28;20040;-77
2023/12/18 02:16:57;;;;;;;14.07;7.38;;;;;;;-1.35;65.56;96736.06;5106940;28;20490;-77
2023/12/18 02:19:27;;;;;;;15.98;9.15;;;;;;;-1.37;65.67;96727.50;5109552;28;20080;-77
2023/12/18 02:21:56;;;;;;;15.93;7.60;;;;;;;-1.38;65.54;96720.53;5109085;28;20028;-77
2023/12/18 02:24:22;;;;;;;16.10;8.00;;;;;;;-1.31;65.13;96720.06;5108947;27;20027;-76
2023/12/18 02:26:48;;;;;;;16.63;8.32;;;;;;;-1.44;65.15;96718.28;5109383;28;20035;-77
2023/12/18 02:29:14;;;;;;;15.32;8.57;;;;;;;-1.40;64.94;96716.53;5107988;28;20094;-77
2023/12/18 02:31:40;;;;;;;15.40;8.52;;;;;;;-1.34;64.62;96716.06;5109598;28;20101;-76
2023/12/18 02:34:05;;;;;;;14.05;7.25;;;;;;;-1.39;64.74;96716.22;5106583;28;20591;-77
2023/12/18 02:36:31;;;;;;;13.98;7.78;;;;;;;-1.34;64.34;96713.38;5109449;28;20108;-77
2023/12/18 02:38:56;;;;;;;11.60;7.82;;;;;;;-1.38;64.56;96717.81;5107172;28;20100;-78
2023/12/18 02:41:22;;;;;;;15.70;8.15;;;;;;;-1.39;64.61;96707.34;5108774;28;20024;-77
2023/12/18 02:43:47;;;;;;;14.52;7.88;;;;;;;-1.39;64.53;96712.72;5109031;28;20035;-76
2023/12/18 02:46:12;;;;;;;14.00;7.75;;;;;;;-1.40;64.59;96706.53;5108085;28;20569;-78
2023/12/18 02:48:38;;;;;;;15.40;9.00;;;;;;;-1.42;64.69;96708.78;5109461;28;20031;-78
2023/12/18 02:51:05;;;;;;;14.60;8.13;;;;;;;-1.40;64.60;96720.03;5107726;28;20526;-76
2023/12/18 02:53:30;;;;;;;12.55;8.07;;;;;;;-1.44;64.58;96720.97;5109184;28;20071;-77
2023/12/18 02:55:56;;;;;;;12.90;8.48;;;;;;;-1.47;64.86;96727.81;5106244;28;20092;-76
2023/12/18 02:58:22;;;;;;;15.98;8.50;;;;;;;-1.47;64.65;96729.72;5108700;28;20032;-78
2023/12/18 03:00:49;;;;;;;12.70;7.82;;;;;;;-1.47;64.68;96724.31;5108332;28;20027;-78
2023/12/18 03:03:14;;;;;;;15.85;9.00;;;;;;;-1.50;64.73;96719.53;5107994;28;20023;-77
2023/12/18 03:05:40;;;;;;;14.38;9.50;;;;;;;-1.49;64.84;96718.44;5107299;28;20016;-78
2023/12/18 03:08:05;;;;;;;14.95;8.52;;;;;;;-1.50;64.69;96728.44;5107146;28;20031;-78
2023/12/18 03:10:31;;;;;;;15.75;8.85;;;;;;;-1.48;64.83;96728.13;5108918;28;20031;-78
2023/12/18 03:12:56;;;;;;;14.98;7.72;;;;;;;-1.46;64.58;96728.59;5106980;28;20043;-77
2023/12/18 03:15:22;;;;;;;16.58;8.40;;;;;;;-1.53;64.66;96723.69;5108455;27;20028;-78
2023/12/18 03:17:47;;;;;;;16.05;9.18;;;;;;;-1.50;64.44;96724.94;5107415;28;20026;-78
2023/12/18 03:20:13;;;;;;;18.83;8.50;;;;;;;-1.47;64.33;96733.19;5108058;28;20232;-78
2023/12/18 03:22:38;;;;;;;14.45;9.00;;;;;;;-1.49;64.47;96724.66;5107895;28;20031;-77
2023/12/18 03:25:04;;;;;;;14.43;8.95;;;;;;;-1.49;64.50;96715.72;5106190;28;20031;-78
2023/12/18 03:27:29;;;;;;;17.20;8.65;;;;;;;-1.51;64.53;96716.06;5108158;28;20099;-78
2023/12/18 03:29:55;;;;;;;15.65;8.45;;;;;;;-1.52;64.35;96714.47;5106795;28;20023;-78
2023/12/18 03:32:20;;;;;;;14.00;7.82;;;;;;;-1.50;64.38;96714.16;5106896;28;20031;-77
2023/12/18 03:34:45;;;;;;;15.38;9.40;;;;;;;-1.52;64.38;96702.88;5106940;28;20039;-78
2023/12/18 03:37:11;;;;;;;15.20;8.77;;;;;;;-1.56;64.33;96700.00;5108250;28;20023;-78
2023/12/18 03:39:36;;;;;;;15.02;8.70;;;;;;;-1.58;64.51;96699.56;5107183;28;20143;-77
2023/12/18 03:42:02;;;;;;;17.55;9.68;;;;;;;-1.61;64.58;96705.56;5108036;28;20023;-79
2023/12/18 03:44:27;;;;;;;13.45;7.85;;;;;;;-1.68;64.55;96700.63;5107874;28;20121;-78
2023/12/18 03:46:53;;;;;;;14.65;8.30;;;;;;;-1.59;64.29;96710.66;5106836;28;20413;-77
2023/12/18 03:49:18;;;;;;;15.73;8.00;;;;;;;-1.59;64.51;96707.97;5108043;28;20481;-77
2023/12/18 03:51:43;;;;;;;15.48;8.88;;;;;;;-1.63;64.60;96708.59;5106109;28;20024;-77
2023/12/18 03:54:09;;;;;;;16.60;8.55;;;;;;;-1.66;64.71;96695.75;5108033;27;20026;-77
2023/12/18 03:56:34;;;;;;;17.15;9.50;;;;;;;-1.68;64.69;96699.84;5106438;28;20498;-77
2023/12/18 03:58:59;;;;;;;18.08;10.00;;;;;;;-1.67;64.61;96704.91;5107452;28;20027;-77
2023/12/18 04:01:31;;;;;;;15.32;9.52;;;;;;;-1.60;64.31;96704.47;5107187;28;20027;-77
2023/12/18 04:03:57;;;;;;;14.55;8.88;;;;;;;-1.62;64.22;96706.66;5105478;28;20028;-77
2023/12/18 04:06:22;;;;;;;16.15;9.32;;;;;;;-1.66;64.23;96703.03;5107668;28;20282;-77
2023/12/18 04:08:47;;;;;;;15.48;9.05;;;;;;;-1.71;64.27;96697.78;5106038;28;20080;-78
2023/12/18 04:11:14;;;;;;;16.33;9.40;;;;;;;-1.67;64.27;96704.13;5107796;28;20027;-78
2023/12/18 04:13:40;;;;;;;13.95;9.38;;;;;;;-1.70;64.50;96708.25;5106046;28;20047;-77
2023/12/18 04:16:06;;;;;;;15.10;9.15;;;;;;;-1.70;64.30;96712.88;5107500;28;20546;-77
2023/12/18 04:18:31;;;;;;;15.15;9.35;;;;;;;-1.70;64.19;96713.66;5106568;28;20023;-78
2023/12/18 04:20:56;;;;;;;17.05;9.13;;;;;;;-1.73;64.40;96716.16;5107208;28;20059;-77
2023/12/18 04:23:22;;;;;;;18.42;11.00;;;;;;;-1.74;64.14;96709.19;5107123;28;20062;-77
2023/12/18 04:25:47;;;;;;;19.67;11.52;;;;;;;-1.73;64.08;96718.88;5105067;28;20024;-78
2023/12/18 04:28:13;;;;;;;18.88;10.55;;;;;;;-1.70;63.90;96716.34;5106373;28;20122;-77
2023/12/18 04:30:38;;;;;;;18.92;11.40;;;;;;;-1.75;64.03;96710.31;5106005;28;20410;-78
2023/12/18 04:33:04;;;;;;;19.75;10.80;;;;;;;-1.74;64.17;96714.59;5108009;28;20020;-78
2023/12/18 04:35:29;;;;;;;17.02;10.70;;;;;;;-1.78;64.60;96709.03;5106014;28;20063;-78
2023/12/18 04:37:55;;;;;;;23.05;11.77;;;;;;;-1.75;64.17;96711.09;5107712;28;20085;-77
2023/12/18 04:40:20;;;;;;;20.35;11.93;;;;;;;-1.77;63.96;96712.53;5106876;28;20028;-79
2023/12/18 04:42:45;;;;;;;22.45;11.73;;;;;;;-1.80;64.11;96705.06;5106499;28;20567;-76
2023/12/18 04:45:11;;;;;;;19.90;12.40;;;;;;;-1.78;64.15;96719.00;5105642;28;20077;-78
2023/12/18 04:47:36;;;;;;;20.80;13.95;;;;;;;-1.82;64.31;96710.78;5087245;28;20031;-77
2023/12/18 04:50:02;;;;;;;22.25;12.77;;;;;;;-1.83;64.28;96719.97;5107582;28;20443;-77
2023/12/18 04:52:27;;;;;;;22.25;13.25;;;;;;;-1.84;64.24;96712.19;5105391;28;20031;-77
2023/12/18 04:54:53;;;;;;;20.80;13.20;;;;;;;-1.83;64.55;96708.41;5107114;28;20092;-77
2023/12/18 04:57:19;;;;;;;20.02;13.88;;;;;;;-1.85;64.62;96713.28;5105943;28;20121;-77
2023/12/18 04:59:44;;;;;;;21.92;13.80;;;;;;;-1.79;64.39;96714.72;5106817;28;20106;-78
2023/12/18 05:02:09;;;;;;;22.38;13.73;;;;;;;-1.77;64.50;96717.94;5105096;28;20031;-77
2023/12/18 05:04:35;;;;;;;25.67;15.38;;;;;;;-1.80;64.27;96708.53;5105501;28;20019;-77
2023/12/18 05:07:00;;;;;;;23.80;14.38;;;;;;;-1.81;64.47;96703.47;5105842;28;20038;-78
2023/12/18 05:09:26;;;;;;;23.42;15.85;;;;;;;-1.85;64.58;96706.00;5104978;28;20509;-77
2023/12/18 05:11:51;;;;;;;25.13;15.50;;;;;;;-1.83;64.61;96713.78;5107217;28;20055;-77
2023/12/18 05:14:17;;;;;;;23.02;14.77;;;;;;;-1.85;64.80;96716.78;5103571;28;20052;-78
2023/12/18 05:16:42;;;;;;;24.10;14.57;;;;;;;-1.83;64.68;96719.19;5106468;28;20028;-77
2023/12/18 05:19:08;;;;;;;23.48;14.18;;;;;;;-1.79;64.71;96712.03;5105377;28;20027;-77
2023/12/18 05:21:33;;;;;;;22.95;14.35;;;;;;;-1.82;64.89;96702.69;5105128;28;20068;-77
2023/12/18 05:23:59;;;;;;;24.17;15.18;;;;;;;-1.83;64.97;96703.81;5106651;28;20028;-77
2023/12/18 05:26:24;;;;;;;28.17;15.18;;;;;;;-1.88;65.17;96704.72;5105043;28;20106;-76
2023/12/18 05:28:49;;;;;;;27.02;15.27;;;;;;;-1.84;65.18;96717.56;5107410;28;20032;-77
2023/12/18 05:31:16;;;;;;;21.95;14.25;;;;;;;-1.88;65.09;96709.34;5103262;28;20020;-76
2023/12/18 05:33:42;;;;;;;22.05;15.75;;;;;;;-1.87;65.17;96711.72;5107106;28;20470;-77
2023/12/18 05:36:08;;;;;;;26.23;16.25;;;;;;;-1.89;64.80;96716.63;5105310;28;20028;-78
2023/12/18 05:38:33;;;;;;;25.08;15.75;;;;;;;-1.87;65.00;96708.22;5106198;28;20043;-78
2023/12/18 05:40:59;;;;;;;25.08;14.80;;;;;;;-1.88;64.95;96698.56;5104828;28;20031;-78
2023/12/18 05:43:24;;;;;;;28.95;17.92;;;;;;;-1.88;65.18;96709.34;5104995;28;20028;-77
2023/12/18 05:45:49;;;;;;;33.53;16.80;;;;;;;-1.86;65.18;96717.91;5106592;28;20034;-78
2023/12/18 05:48:15;;;;;;;24.70;15.75;;;;;;;-1.85;65.28;96718.69;5104681;28;20024;-77
2023/12/18 05:50:40;;;;;;;27.77;17.65;;;;;;;-1.83;65.22;96721.88;5106843;28;20460;-77
2023/12/18 05:53:05;;;;;;;30.30;17.45;;;;;;;-1.84;65.57;96712.19;5103827;28;20034;-77
2023/12/18 05:55:31;;;;;;;29.52;18.85;;;;;;;-1.85;65.54;96713.28;5106176;28;20409;-77
2023/12/18 05:57:56;;;;;;;30.75;18.83;;;;;;;-1.85;65.77;96716.78;5105989;28;20037;-78
2023/12/18 06:00:22;;;;;;;30.55;18.15;;;;;;;-1.82;65.96;96718.06;5105728;28;20055;-78
2023/12/18 06:02:47;;;;;;;29.80;18.33;;;;;;;-1.77;65.75;96728.72;5105161;28;20108;-78
2023/12/18 06:05:13;;;;;;;29.30;19.48;;;;;;;-1.74;66.05;96726.16;5104019;28;20027;-78
2023/12/18 06:07:40;;;;;;;35.15;21.23;;;;;;;-1.74;66.12;96730.75;5106484;28;20024;-80
2023/12/18 06:10:06;;;;;;;32.08;21.25;;;;;;;-1.73;66.14;96718.88;5103510;28;20027;-77
2023/12/18 06:12:32;;;;;;;35.70;20.80;;;;;;;-1.70;66.15;96715.56;5106411;28;20512;-78
2023/12/18 06:14:57;;;;;;;36.15;21.20;;;;;;;-1.68;65.92;96718.72;5106932;28;20031;-78
2023/12/18 06:17:23;;;;;;;34.97;22.90;;;;;;;-1.66;66.07;96724.63;5109354;28;20546;-80
2023/12/18 06:19:49;;;;;;;38.25;23.05;;;;;;;-1.66;65.84;96727.31;5109327;28;20378;-79
2023/12/18 06:22:14;;;;;;;39.60;24.67;;;;;;;-1.63;65.59;96727.47;5108792;28;20032;-78
2023/12/18 06:24:40;;;;;;;39.70;23.52;;;;;;;-1.58;65.67;96731.13;5109218;27;20057;-78
2023/12/18 06:27:05;;;;;;;48.55;26.40;;;;;;;-1.58;65.81;96731.13;5108310;28;20023;-78
2023/12/18 06:29:31;;;;;;;53.15;30.15;;;;;;;-1.55;65.77;96731.28;5110177;28;20024;-78
2023/12/18 06:31:57;;;;;;;62.80;32.03;;;;;;;-1.52;65.85;96719.06;5108334;28;20088;-79
2023/12/18 06:34:23;;;;;;;61.97;33.05;;;;;;;-1.52;65.77;96713.69;5108240;28;20023;-78
2023/12/18 06:36:48;;;;;;;59.53;33.17;;;;;;;-1.47;65.82;96717.03;5109346;28;20016;-79
2023/12/18 06:39:13;;;;;;;66.43;32.08;;;;;;;-1.48;65.80;96706.56;5108858;28;20112;-78
2023/12/18 06:41:39;;;;;;;53.60;29.35;;;;;;;-1.38;65.66;96706.22;5109424;28;20035;-77
2023/12/18 06:44:05;;;;;;;48.60;29.35;;;;;;;-1.43;65.40;96699.09;5108083;28;20023;-78
2023/12/18 06:46:31;;;;;;;51.50;28.80;;;;;;;-1.40;65.54;96713.84;5108152;28;20118;-77
2023/12/18 06:48:57;;;;;;;53.30;30.63;;;;;;;-1.35;65.45;96709.09;5107888;28;20060;-78
2023/12/18 06:51:22;;;;;;;52.00;30.75;;;;;;;-1.31;65.26;96705.78;5109499;28;20378;-78
2023/12/18 06:53:48;;;;;;;63.17;32.40;;;;;;;-1.30;65.28;96701.94;5108143;28;20031;-79
2023/12/18 06:56:13;;;;;;;59.42;33.58;;;;;;;-1.24;65.40;96700.69;5109070;28;20024;-85
2023/12/18 06:58:39;;;;;;;59.00;33.17;;;;;;;-1.21;65.23;96703.53;5108846;28;20066;-79
2023/12/18 07:01:05;;;;;;;62.08;35.28;;;;;;;-1.14;65.27;96709.25;5107962;28;20032;-83
2023/12/18 07:03:30;;;;;;;62.58;36.40;;;;;;;-1.13;65.50;96715.44;5107744;28;20498;-80
2023/12/18 07:05:56;;;;;;;69.82;37.35;;;;;;;-1.08;65.42;96713.38;5106201;28;20027;-89
2023/12/18 07:08:21;;;;;;;63.33;37.72;;;;;;;-1.09;65.34;96701.00;5108158;28;20035;-86
2023/12/18 07:10:47;;;;;;;67.85;37.53;;;;;;;-0.92;65.23;96715.56;5089082;28;20031;-84
2023/12/18 07:13:12;;;;;;;70.88;39.30;;;;;;;-0.87;65.26;96723.50;5090625;28;20051;-78
2023/12/18 07:15:38;;;;;;;70.93;41.78;;;;;;;-0.82;65.32;96712.53;5107719;28;20109;-78
2023/12/18 07:18:04;;;;;;;72.97;41.47;;;;;;;-0.76;65.11;96715.88;5108382;28;20023;-79
2023/12/18 07:20:29;;;;;;;73.53;41.42;;;;;;;-0.76;65.23;96713.97;5107053;28;20040;-79
2023/12/18 07:22:54;;;;;;;61.72;35.17;;;;;;;-0.66;65.06;96719.03;5106351;28;20095;-77
2023/12/18 07:25:20;;;;;;;65.22;37.92;;;;;;;-0.57;65.07;96713.63;5108355;28;20398;-78
2023/12/18 07:27:45;;;;;;;62.83;37.60;;;;;;;-0.44;64.84;96719.94;5107202;28;20019;-78
2023/12/18 07:30:11;;;;;;;65.85;38.28;;;;;;;-0.35;64.62;96721.47;5108907;28;20431;-77
2023/12/18 07:32:38;;;;;;;62.10;37.00;;;;;;;-0.23;64.61;96714.63;5107045;28;20099;-78
2023/12/18 07:35:04;;;;;;;74.18;41.13;;;;;;;-0.05;64.30;96721.56;5108597;28;20886;-78
2023/12/18 07:37:30;;;;;;;70.22;39.22;;;;;;;0.17;63.70;96718.59;5106377;28;20036;-77
2023/12/18 07:39:56;;;;;;;62.33;38.15;;;;;;;0.39;63.02;96716.69;5105855;28;20129;-78
2023/12/18 07:42:21;;;;;;;61.58;38.05;;;;;;;0.65;62.45;96719.25;5108588;28;20084;-78
2023/12/18 07:44:47;;;;;;;60.22;36.60;;;;;;;0.92;61.55;96717.91;5106688;28;20038;-78
2023/12/18 07:47:12;;;;;;;63.33;37.03;;;;;;;1.27;60.92;96704.88;5108416;28;20028;-77
2023/12/18 07:49:38;;;;;;;64.63;38.08;;;;;;;1.70;59.81;96709.03;5106533;28;20115;-79
2023/12/18 07:52:03;;;;;;;61.55;34.95;;;;;;;2.30;58.61;96711.00;5108304;28;20474;-77
2023/12/18 07:54:28;;;;;;;68.95;37.83;;;;;;;3.63;54.88;96719.09;5106724;28;20077;-79
2023/12/18 07:56:54;;;;;;;59.83;35.85;;;;;;;5.17;50.33;96707.13;5107825;28;20028;-78
2023/12/18 07:59:20;;;;;;;64.35;38.28;;;;;;;6.45;46.76;96705.13;5107493;28;20027;-78
2023/12/18 08:01:45;;;;;;;60.53;39.25;;;;;;;7.49;44.61;96707.28;5107099;28;20034;-78
2023/12/18 08:04:11;;;;;;;70.45;41.97;;;;;;;8.37;42.46;96701.94;5108189;28;20074;-78
2023/12/18 08:06:37;;;;;;;65.95;39.95;;;;;;;9.05;40.62;96702.34;5105927;28;20103;-79
2023/12/18 08:09:02;;;;;;;63.03;37.50;;;;;;;9.89;39.57;96696.78;5108044;28;20028;-79
2023/12/18 08:11:27;;;;;;;60.42;36.50;;;;;;;10.66;37.99;96699.97;5106229;28;20023;-78
2023/12/18 08:13:53;;;;;;;56.60;35.97;;;;;;;11.13;36.33;96709.75;5107651;28;20141;-78
2023/12/18 08:16:18;;;;;;;46.85;31.83;;;;;;;11.71;34.99;96700.06;5106946;28;20030;-79
2023/12/18 08:18:44;;;;;;;45.97;30.58;;;;;;;12.25;34.18;96706.06;5105428;28;20392;-78
2023/12/18 08:21:13;;;;;;;46.28;30.17;;;;;;;12.88;33.39;96697.66;5107486;28;20516;-78
2023/12/18 08:23:42;;;;;;;44.65;29.83;;;;;;;13.57;31.97;96709.53;5106022;28;20486;-78
2023/12/18 08:26:11;;;;;;;35.15;25.75;;;;;;;14.02;31.26;96702.63;5107792;28;20081;-78
2023/12/18 08:28:45;;;;;;;34.22;23.02;;;;;;;14.57;30.01;96700.66;5104612;28;20409;-81
2023/12/18 08:31:12;;;;;;;35.63;20.48;;;;;;;15.09;29.19;96700.91;5107722;28;20046;-80
2023/12/18 08:33:40;;;;;;;39.80;32.78;;;;;;;15.59;28.89;96699.16;5106547;28;20024;-80
2023/12/18 08:36:06;;;;;;;35.35;27.35;;;;;;;16.20;27.93;96699.44;5107112;28;20024;-80
2023/12/18 08:38:32;;;;;;;30.50;23.42;;;;;;;16.77;27.29;96699.31;5107233;28;20435;-79
2023/12/18 08:40:57;;;;;;;23.05;18.73;;;;;;;17.25;26.54;96695.66;5106142;28;20042;-80
2023/12/18 08:43:23;;;;;;;23.02;16.92;;;;;;;17.73;25.83;96703.09;5107683;28;20106;-79
2023/12/18 08:45:48;;;;;;;20.88;16.08;;;;;;;18.12;25.07;96692.00;5106066;28;20032;-80
2023/12/18 08:48:14;;;;;;;18.08;14.55;;;;;;;18.43;25.08;96695.03;5107525;28;20112;-79
2023/12/18 08:50:39;;;;;;;19.73;15.65;;;;;;;18.57;24.28;96698.13;5105840;28;20414;-79
2023/12/18 08:53:04;;;;;;;18.75;14.90;;;;;;;18.81;23.99;96681.88;5107284;28;20024;-79
2023/12/18 08:55:30;;;;;;;17.10;12.88;;;;;;;19.57;23.26;96691.19;5106804;28;20410;-79
2023/12/18 08:57:55;;;;;;;17.05;12.35;;;;;;;19.98;22.42;96694.88;5105994;28;20474;-79
2023/12/18 09:00:22;;;;;;;16.50;13.27;;;;;;;20.14;22.50;96695.44;5106930;28;20117;-79
2023/12/18 09:02:47;;;;;;;16.50;12.95;;;;;;;20.80;21.85;96686.84;5105258;28;20155;-79
2023/12/18 09:05:13;;;;;;;18.80;14.60;;;;;;;21.11;21.07;96683.97;5107854;28;20435;-78
2023/12/18 09:07:38;;;;;;;18.85;14.20;;;;;;;21.51;21.22;96696.28;5105099;28;20020;-79
2023/12/18 09:10:04;;;;;;;16.63;13.18;;;;;;;21.82;20.39;96679.28;5107090;28;20020;-79
2023/12/18 09:12:29;;;;;;;17.30;13.77;;;;;;;22.11;20.16;96689.97;5106235;28;20096;-78
2023/12/18 09:14:55;;;;;;;16.25;13.90;;;;;;;22.42;19.86;96679.28;5104577;28;20043;-78
2023/12/18 09:17:21;;;;;;;19.88;15.07;;;;;;;22.79;19.48;96679.09;5107132;28;20534;-78
2023/12/18 09:19:46;;;;;;;19.30;14.07;;;;;;;22.84;19.68;96660.84;5104943;28;20037;-78
2023/12/18 09:22:11;;;;;;;19.80;14.60;;;;;;;23.15;19.23;96663.28;5107315;28;20031;-78
2023/12/18 09:24:37;;;;;;;17.67;15.77;;;;;;;23.42;18.90;96654.66;5104962;28;20027;-78
2023/12/18 09:27:03;;;;;;;18.67;14.77;;;;;;;23.69;18.56;96652.91;5107114;28;20074;-78
2023/12/18 09:29:29;;;;;;;18.20;14.50;;;;;;;23.89;18.26;96650.19;5105328;28;20093;-78
2023/12/18 09:31:54;;;;;;;21.33;15.00;;;;;;;24.27;18.10;96651.31;5107163;28;20047;-78
2023/12/18 09:34:19;;;;;;;18.70;14.15;;;;;;;24.84;17.62;96645.28;5106856;28;20497;-79
2023/12/18 09:36:45;;;;;;;17.30;14.35;;;;;;;25.09;17.38;96646.63;5105169;28;20023;-78
2023/12/18 09:39:10;;;;;;;17.27;14.43;;;;;;;25.01;17.15;96646.28;5107112;28;20217;-78
2023/12/18 09:41:36;;;;;;;18.98;15.40;;;;;;;25.26;17.13;96636.38;5104986;28;20039;-78
2023/12/18 09:44:01;;;;;;;19.10;15.15;;;;;;;25.34;17.08;96634.66;5106781;28;20024;-78
2023/12/18 09:46:27;;;;;;;17.08;14.63;;;;;;;25.75;16.99;96637.44;5104689;28;20035;-78
2023/12/18 09:48:53;;;;;;;16.15;14.38;;;;;;;25.85;16.51;96629.56;5108677;28;20047;-78
2023/12/18 09:51:24;;;;;;;17.02;14.23;;;;;;;26.21;16.44;96623.22;5110044;28;20083;-78
2023/12/18 09:53:51;;;;;;;18.95;14.35;;;;;;;26.11;16.45;96626.72;5109525;28;20036;-78
2023/12/18 09:56:18;;;;;;;17.08;13.70;;;;;;;26.37;16.46;96613.31;5110827;28;20024;-79
2023/12/18 09:58:45;;;;;;;15.88;13.88;;;;;;;26.56;16.04;96619.41;5108709;28;20032;-78
2023/12/18 10:01:11;;;;;;;16.83;14.43;;;;;;;26.62;16.13;96606.09;5110662;28;20032;-79
2023/12/18 10:03:36;;;;;;;16.58;14.13;;;;;;;26.69;16.47;96605.63;5107096;28;20024;-78
2023/12/18 10:06:03;;;;;;;18.25;14.07;;;;;;;26.78;16.02;96598.97;5110581;28;20088;-78
2023/12/18 10:08:28;;;;;;;20.08;14.48;;;;;;;26.74;15.94;96604.88;5109067;28;20092;-78
2023/12/18 10:10:53;;;;;;;16.60;13.50;;;;;;;26.46;16.40;96590.63;5109996;28;20023;-80
2023/12/18 10:13:19;;;;;;;16.83;13.60;;;;;;;26.34;16.55;96593.84;5110161;28;20086;-78
2023/12/18 10:15:44;;;;;;;16.90;14.02;;;;;;;26.31;16.70;96592.00;5108489;28;20032;-78
2023/12/18 10:18:10;;;;;;;15.90;13.90;;;;;;;26.47;16.58;96591.38;5110297;28;20031;-78
2023/12/18 10:20:36;;;;;;;16.13;13.52;;;;;;;26.48;16.35;96587.28;5108003;28;20051;-78
2023/12/18 10:23:03;;;;;;;18.23;12.98;;;;;;;26.58;16.59;96588.63;5110432;28;20066;-78
2023/12/18 10:25:31;;;;;;;19.98;14.73;;;;;;;26.47;16.52;96580.88;5108341;28;20037;-78
2023/12/18 10:27:57;;;;;;;19.35;14.88;;;;;;;26.29;16.64;96584.06;5109824;28;20026;-78
2023/12/18 10:30:27;;;;;;;17.85;14.52;;;;;;;26.10;17.00;96582.91;5109809;28;20438;-78
2023/12/18 10:32:53;;;;;;;20.75;14.88;;;;;;;26.38;16.81;96578.25;5108636;28;20513;-78
2023/12/18 10:35:19;;;;;;;20.27;14.93;;;;;;;26.33;16.68;96566.94;5109919;28;20037;-78
2023/12/18 10:37:54;;;;;;;18.42;13.15;;;;;;;26.39;16.82;96562.88;5108485;28;20047;-78
2023/12/18 10:40:23;;;;;;;15.80;12.73;;;;;;;26.54;16.90;96557.06;5110191;28;20040;-77
2023/12/18 10:43:09;;;;;;;14.23;11.32;;;;;;;26.58;16.76;96559.66;5108357;27;20092;-78
2023/12/18 10:45:36;;;;;;;15.35;11.25;;;;;;;26.93;16.56;96551.59;5108848;28;20106;-78
2023/12/18 10:48:02;;;;;;;12.63;10.07;;;;;;;27.37;16.04;96552.28;5108233;28;20062;-79
2023/12/18 10:50:31;;;;;;;11.40;9.75;;;;;;;27.81;15.55;96550.78;5106687;28;20055;-78
2023/12/18 10:52:58;;;;;;;12.75;10.38;;;;;;;28.59;15.02;96536.56;5108658;28;20016;-78
2023/12/18 10:55:23;;;;;;;15.55;12.20;;;;;;;29.45;14.51;96536.44;5107495;28;20038;-78
2023/12/18 10:57:49;;;;;;;19.83;15.00;;;;;;;30.40;13.41;96524.34;5108091;28;20031;-78
2023/12/18 11:00:15;;;;;;;12.90;11.40;;;;;;;31.04;13.33;96521.00;5107125;28;20057;-78
2023/12/18 11:02:41;;;;;;;13.60;10.85;;;;;;;31.48;13.11;96509.56;5108846;28;20126;-78
2023/12/18 11:05:06;;;;;;;12.10;10.63;;;;;;;31.90;12.92;96497.28;5109124;28;20102;-78
2023/12/18 11:07:32;;;;;;;14.15;11.18;;;;;;;32.23;12.57;96501.63;5106312;28;20039;-78
2023/12/18 11:09:58;;;;;;;13.27;10.32;;;;;;;32.58;12.18;96502.53;5107927;28;20051;-77
2023/12/18 11:12:24;;;;;;;14.20;9.48;;;;;;;32.86;11.85;96490.56;5105957;28;20035;-78